createdAt,value
2019-05-30T00:00:05.855Z,4.43
2019-05-30T00:02:21.001Z,3.93
2019-05-30T00:04:49.413Z,4.63
2019-05-30T00:07:17.818Z,4.50
2019-05-30T00:09:46.313Z,4.23
2019-05-30T00:12:14.713Z,5.87
2019-05-30T00:14:43.418Z,5.23
2019-05-30T00:17:12.217Z,4.90
2019-05-30T00:19:40.630Z,4.30
2019-05-30T00:22:09.093Z,5.53
2019-05-30T00:24:37.505Z,4.90
2019-05-30T00:27:06.615Z,4.50
2019-05-30T00:29:35.190Z,4.80
2019-05-30T00:32:04.405Z,5.47
2019-05-30T00:34:33.373Z,4.00
2019-05-30T00:37:02.091Z,5.20
2019-05-30T00:39:30.930Z,6.00
2019-05-30T00:41:59.990Z,4.47
2019-05-30T00:44:28.829Z,5.23
2019-05-30T00:46:58.060Z,5.53
2019-05-30T00:49:26.619Z,6.17
2019-05-30T00:51:56.345Z,4.80
2019-05-30T00:54:25.213Z,4.50
2019-05-30T00:56:53.612Z,4.63
2019-05-30T00:59:22.018Z,4.80
2019-05-30T01:01:50.781Z,5.17
2019-05-30T01:04:19.184Z,5.30
2019-05-30T01:06:47.612Z,6.40
2019-05-30T01:09:16.325Z,5.80
2019-05-30T01:11:44.732Z,7.10
2019-05-30T01:14:13.140Z,4.47
2019-05-30T01:16:42.678Z,7.60
2019-05-30T01:19:11.399Z,6.93
2019-05-30T01:21:40.241Z,4.17
2019-05-30T01:24:08.642Z,4.83
2019-05-30T01:26:37.062Z,4.93
2019-05-30T01:29:05.954Z,4.70
2019-05-30T01:31:34.364Z,5.73
2019-05-30T01:34:03.698Z,9.53
2019-05-30T01:36:32.254Z,4.70
2019-05-30T01:39:01.742Z,4.03
2019-05-30T01:41:30.617Z,5.10
2019-05-30T01:43:59.814Z,5.00
2019-05-30T01:46:28.309Z,5.60
2019-05-30T01:48:58.079Z,8.27
2019-05-30T01:51:26.598Z,4.50
2019-05-30T01:53:55.297Z,8.37
2019-05-30T01:56:23.708Z,5.10
2019-05-30T01:58:52.105Z,4.40
2019-05-30T02:01:25.076Z,4.90
2019-05-30T02:03:50.636Z,5.20
2019-05-30T02:06:19.353Z,4.43
2019-05-30T02:08:47.750Z,5.33
2019-05-30T02:11:16.164Z,5.20
2019-05-30T02:13:44.915Z,5.10
2019-05-30T02:16:13.325Z,3.73
2019-05-30T02:18:41.729Z,4.23
2019-05-30T02:21:10.143Z,9.03
2019-05-30T02:23:38.546Z,4.10
2019-05-30T02:26:08.166Z,5.80
2019-05-30T02:28:36.745Z,5.63
2019-05-30T02:31:05.716Z,5.83
2019-05-30T02:33:35.775Z,4.30
2019-05-30T02:36:05.975Z,6.90
2019-05-30T02:38:34.298Z,6.13
2019-05-30T02:41:03.400Z,6.90
2019-05-30T02:43:33.483Z,6.90
2019-05-30T02:46:03.466Z,6.83
2019-05-30T02:48:32.029Z,4.33
2019-05-30T02:51:00.994Z,4.30
2019-05-30T02:53:29.605Z,4.40
2019-05-30T02:55:58.026Z,5.10
2019-05-30T02:58:26.418Z,5.00
2019-05-30T03:00:54.836Z,6.17
2019-05-30T03:03:23.230Z,4.70
2019-05-30T03:05:51.717Z,4.77
2019-05-30T03:08:20.206Z,4.73
2019-05-30T03:10:48.985Z,4.70
2019-05-30T03:13:17.441Z,5.20
2019-05-30T03:15:45.855Z,5.40
2019-05-30T03:18:15.109Z,6.30
2019-05-30T03:20:44.782Z,7.50
2019-05-30T03:23:14.709Z,6.77
2019-05-30T03:25:43.861Z,5.10
2019-05-30T03:28:13.648Z,5.50
2019-05-30T03:30:44.851Z,4.73
2019-05-30T03:33:31.754Z,5.50
2019-05-30T03:35:44.762Z,5.77
2019-05-30T03:38:15.505Z,5.60
2019-05-30T03:40:43.492Z,4.90
2019-05-30T03:43:13.791Z,5.40
2019-05-30T03:45:43.927Z,5.40
2019-05-30T03:48:16.305Z,6.50
2019-05-30T03:50:48.156Z,5.37
2019-05-30T03:53:16.885Z,9.20
2019-05-30T03:55:48.705Z,7.17
2019-05-30T03:58:23.228Z,8.03
2019-05-30T04:00:57.405Z,8.57
2019-05-30T04:03:48.658Z,5.73
2019-05-30T04:06:25.911Z,5.47
2019-05-30T04:08:57.658Z,5.90
2019-05-30T04:11:29.450Z,6.47
2019-05-30T04:14:00.925Z,5.30
2019-05-30T04:16:29.342Z,5.10
2019-05-30T04:18:58.078Z,8.83
2019-05-30T04:21:26.766Z,5.40
2019-05-30T04:23:55.168Z,8.77
2019-05-30T04:26:23.842Z,4.50
2019-05-30T04:28:52.246Z,6.80
2019-05-30T04:31:20.651Z,4.57
2019-05-30T04:33:49.060Z,8.40
2019-05-30T04:36:18.942Z,4.60
2019-05-30T04:38:47.823Z,6.03
2019-05-30T04:41:18.673Z,5.97
2019-05-30T04:43:46.356Z,4.53
2019-05-30T04:46:16.745Z,5.50
2019-05-30T04:48:44.881Z,6.70
2019-05-30T04:51:14.565Z,7.70
2019-05-30T04:53:43.425Z,4.50
2019-05-30T04:56:12.620Z,3.50
2019-05-30T04:58:42.503Z,5.13
2019-05-30T05:01:12.912Z,5.30
2019-05-30T05:03:46.179Z,4.57
2019-05-30T05:06:13.611Z,6.40
2019-05-30T05:08:42.321Z,4.57
2019-05-30T05:11:13.056Z,8.30
2019-05-30T05:13:41.117Z,4.57
2019-05-30T05:16:22.984Z,5.77
2019-05-30T05:18:39.925Z,4.03
2019-05-30T05:21:08.323Z,3.63
2019-05-30T05:23:36.734Z,4.20
2019-05-30T05:26:05.484Z,4.60
2019-05-30T05:28:34.171Z,3.93
2019-05-30T05:31:02.679Z,4.43
2019-05-30T05:33:31.085Z,3.07
2019-05-30T05:35:59.481Z,4.37
2019-05-30T05:38:28.513Z,2.97
2019-05-30T05:40:56.984Z,4.13
2019-05-30T05:43:25.392Z,5.20
2019-05-30T05:45:53.796Z,3.60
2019-05-30T05:48:22.613Z,5.57
2019-05-30T05:50:51.182Z,3.50
2019-05-30T05:53:20.745Z,3.53
2019-05-30T05:55:49.365Z,2.77
2019-05-30T05:58:18.981Z,2.80
2019-05-30T06:00:47.838Z,4.00
2019-05-30T06:03:16.842Z,2.20
2019-05-30T06:05:52.937Z,8.10
2019-05-30T06:08:17.369Z,10.60
2019-05-30T06:10:45.989Z,2.70
2019-05-30T06:13:14.398Z,2.43
2019-05-30T06:15:43.053Z,2.70
2019-05-30T06:18:11.779Z,4.60
2019-05-30T06:20:40.217Z,3.40
2019-05-30T06:23:08.624Z,4.03
2019-05-30T06:25:37.304Z,8.23
2019-05-30T06:28:05.992Z,6.43
2019-05-30T06:30:34.390Z,3.13
2019-05-30T06:33:02.800Z,3.33
2019-05-30T06:35:31.208Z,3.10
2019-05-30T06:37:59.680Z,4.33
2019-05-30T06:40:31.769Z,3.27
2019-05-30T06:42:58.648Z,5.77
2019-05-30T06:45:28.414Z,3.90
2019-05-30T06:47:56.907Z,4.03
2019-05-30T06:50:25.316Z,3.83
2019-05-30T06:52:53.777Z,5.40
2019-05-30T06:55:23.108Z,4.70
2019-05-30T06:57:51.566Z,4.23
2019-05-30T07:00:21.707Z,3.57
2019-05-30T07:02:50.631Z,7.60
2019-05-30T07:05:19.631Z,3.90
2019-05-30T07:07:48.634Z,5.33
2019-05-30T07:10:17.725Z,4.07
2019-05-30T07:12:46.494Z,5.80
2019-05-30T07:15:16.347Z,4.30
2019-05-30T07:17:44.749Z,5.50
2019-05-30T07:20:13.237Z,6.57
2019-05-30T07:22:41.974Z,6.10
2019-05-30T07:25:11.016Z,4.50
2019-05-30T07:27:39.415Z,8.33
2019-05-30T07:30:08.574Z,10.20
2019-05-30T07:32:36.997Z,6.53
2019-05-30T07:35:09.714Z,9.80
2019-05-30T07:37:38.109Z,5.67
2019-05-30T07:40:09.247Z,7.23
2019-05-30T07:42:38.316Z,9.87
2019-05-30T07:45:09.826Z,4.47
2019-05-30T07:47:38.572Z,6.47
2019-05-30T07:50:10.298Z,12.13
2019-05-30T07:52:39.140Z,5.57
2019-05-30T07:55:11.518Z,8.93
2019-05-30T07:57:41.447Z,4.70
2019-05-30T08:00:12.603Z,6.43
2019-05-30T08:02:40.998Z,7.03
2019-05-30T08:05:23.359Z,6.67
2019-05-30T08:07:39.924Z,7.07
2019-05-30T08:10:09.814Z,9.70
2019-05-30T08:12:38.466Z,5.40
2019-05-30T08:15:09.215Z,10.47
2019-05-30T08:17:37.970Z,7.97
2019-05-30T08:20:07.954Z,11.27
2019-05-30T08:22:36.344Z,7.53
2019-05-30T08:25:06.493Z,7.97
2019-05-30T08:27:36.203Z,10.40
2019-05-30T08:30:09.796Z,6.27
2019-05-30T08:32:38.939Z,8.40
2019-05-30T08:35:08.256Z,6.07
2019-05-30T08:37:37.334Z,5.83
2019-05-30T08:40:10.037Z,4.70
2019-05-30T08:42:39.051Z,7.10
2019-05-30T08:45:10.092Z,10.00
2019-05-30T08:47:38.656Z,5.60
2019-05-30T08:50:08.805Z,5.70
2019-05-30T08:52:38.494Z,5.30
2019-05-30T08:55:08.145Z,7.87
2019-05-30T08:57:36.719Z,8.83
2019-05-30T09:00:09.834Z,10.47
2019-05-30T09:02:38.846Z,10.80
2019-05-30T09:05:08.065Z,10.03
2019-05-30T09:07:36.612Z,8.40
2019-05-30T09:10:07.294Z,16.13
2019-05-30T09:12:36.410Z,9.03
2019-05-30T09:15:11.368Z,12.90
2019-05-30T09:17:40.545Z,14.40
2019-05-30T09:20:11.217Z,15.20
2019-05-30T09:22:39.821Z,15.00
2019-05-30T09:25:13.602Z,15.50
2019-05-30T09:27:42.885Z,8.37
2019-05-30T09:30:13.793Z,10.93
2019-05-30T09:32:43.276Z,9.30
2019-05-30T09:35:13.793Z,15.23
2019-05-30T09:37:43.764Z,10.23
2019-05-30T09:40:13.725Z,6.40
2019-05-30T09:42:44.139Z,9.70
2019-05-30T09:45:14.876Z,6.30
2019-05-30T09:47:45.157Z,11.70
2019-05-30T09:50:13.960Z,6.67
2019-05-30T09:52:43.576Z,6.00
2019-05-30T09:55:13.705Z,9.40
2019-05-30T09:57:42.990Z,8.00
2019-05-30T10:00:17.562Z,6.67
2019-05-30T10:02:46.769Z,8.80
2019-05-30T10:05:17.401Z,15.53
2019-05-30T10:07:47.488Z,11.67
2019-05-30T10:10:17.056Z,8.17
2019-05-30T10:12:46.911Z,8.47
2019-05-30T10:15:16.110Z,12.70
2019-05-30T10:17:45.918Z,10.00
2019-05-30T10:20:16.218Z,8.27
2019-05-30T10:22:47.085Z,10.20
2019-05-30T10:25:15.145Z,9.67
2019-05-30T10:27:43.565Z,11.97
2019-05-30T10:30:14.585Z,7.90
2019-05-30T10:32:43.004Z,17.90
2019-05-30T10:35:11.689Z,10.77
2019-05-30T10:37:40.438Z,14.63
2019-05-30T10:40:10.344Z,9.40
2019-05-30T10:42:38.749Z,10.97
2019-05-30T10:45:11.354Z,11.53
2019-05-30T10:47:39.753Z,11.80
2019-05-30T10:50:09.797Z,9.43
2019-05-30T10:52:38.197Z,11.30
2019-05-30T10:55:08.101Z,9.47
2019-05-30T10:57:36.569Z,9.97
2019-05-30T11:00:09.765Z,13.60
2019-05-30T11:02:38.139Z,8.77
2019-05-30T11:05:10.294Z,9.90
2019-05-30T11:07:59.003Z,8.13
2019-05-30T11:10:29.273Z,8.63
2019-05-30T11:13:05.667Z,11.30
2019-05-30T11:15:28.134Z,10.33
2019-05-30T11:17:57.690Z,6.87
2019-05-30T11:20:26.251Z,7.57
2019-05-30T11:22:54.687Z,10.37
2019-05-30T11:25:23.394Z,7.37
2019-05-30T11:27:52.690Z,8.13
2019-05-30T11:30:21.295Z,8.37
2019-05-30T11:32:50.825Z,7.83
2019-05-30T11:35:19.431Z,7.60
2019-05-30T11:37:49.010Z,8.00
2019-05-30T11:40:17.918Z,6.60
2019-05-30T11:42:46.325Z,7.33
2019-05-30T11:45:15.805Z,7.70
2019-05-30T11:47:44.220Z,7.33
2019-05-30T11:50:13.269Z,7.97
2019-05-30T11:52:42.526Z,7.20
2019-05-30T11:55:12.341Z,6.17
2019-05-30T11:57:40.806Z,5.53
2019-05-30T12:00:09.750Z,9.50
2019-05-30T12:02:38.174Z,9.80
2019-05-30T12:05:08.201Z,10.30
2019-05-30T12:07:37.094Z,8.33
2019-05-30T12:10:06.932Z,13.13
2019-05-30T12:12:35.521Z,13.83
2019-05-30T12:15:07.343Z,9.77
2019-05-30T12:17:35.750Z,9.40
2019-05-30T12:20:06.743Z,10.70
2019-05-30T12:22:35.148Z,8.70
2019-05-30T12:25:05.665Z,10.90
2019-05-30T12:27:34.076Z,8.40
2019-05-30T12:30:02.993Z,10.43
2019-05-30T12:32:31.406Z,11.10
2019-05-30T12:35:00.478Z,11.13
2019-05-30T12:37:29.191Z,11.13
2019-05-30T12:39:58.703Z,13.90
2019-05-30T12:42:27.191Z,15.10
2019-05-30T12:44:55.619Z,15.30
2019-05-30T12:47:24.092Z,13.57
2019-05-30T12:49:53.266Z,10.83
2019-05-30T12:52:21.789Z,14.77
2019-05-30T12:54:50.266Z,13.90
2019-05-30T12:57:18.680Z,15.60
2019-05-30T12:59:47.166Z,9.10
2019-05-30T13:02:15.581Z,11.40
2019-05-30T13:04:43.998Z,14.17
2019-05-30T13:07:12.582Z,11.80
2019-05-30T13:09:41.246Z,9.83
2019-05-30T13:12:09.663Z,11.30
2019-05-30T13:14:38.065Z,15.40
2019-05-30T13:17:06.550Z,15.80
2019-05-30T13:19:35.290Z,16.27
2019-05-30T13:22:03.709Z,15.83
2019-05-30T13:24:32.361Z,19.23
2019-05-30T13:27:01.829Z,15.67
2019-05-30T13:29:30.365Z,14.27
2019-05-30T13:31:58.785Z,12.90
2019-05-30T13:34:27.186Z,14.53
2019-05-30T13:36:56.877Z,14.70
2019-05-30T13:39:25.410Z,18.53
2019-05-30T13:41:53.828Z,19.80
2019-05-30T13:44:22.490Z,13.57
2019-05-30T13:46:50.920Z,18.60
2019-05-30T13:49:19.317Z,17.77
2019-05-30T13:51:47.739Z,17.20
2019-05-30T13:54:16.137Z,15.70
2019-05-30T13:56:44.817Z,16.70
2019-05-30T13:59:13.220Z,14.97
2019-05-30T14:01:41.625Z,14.27
2019-05-30T14:04:10.459Z,19.10
2019-05-30T14:06:39.021Z,18.90
2019-05-30T14:09:08.587Z,19.77
2019-05-30T14:11:37.581Z,18.37
2019-05-30T14:14:06.880Z,22.27
2019-05-30T14:16:35.758Z,20.20
2019-05-30T14:19:05.317Z,14.63
2019-05-30T14:21:33.862Z,22.90
2019-05-30T14:24:03.419Z,22.67
2019-05-30T14:26:32.470Z,22.87
2019-05-30T14:29:02.220Z,21.23
2019-05-30T14:31:30.855Z,19.77
2019-05-30T14:33:59.265Z,16.40
2019-05-30T14:36:28.142Z,21.73
2019-05-30T14:38:58.793Z,18.03
2019-05-30T14:41:26.965Z,16.57
2019-05-30T14:43:55.459Z,17.10
2019-05-30T14:46:23.866Z,17.40
2019-05-30T14:48:52.275Z,10.37
2019-05-30T14:51:20.677Z,18.63
2019-05-30T14:53:49.380Z,21.70
2019-05-30T14:56:18.082Z,20.27
2019-05-30T14:58:46.498Z,16.60
2019-05-30T15:01:15.248Z,18.40
2019-05-30T15:03:43.929Z,16.53
2019-05-30T15:06:15.378Z,21.63
2019-05-30T15:08:43.217Z,16.50
2019-05-30T15:11:11.941Z,13.50
2019-05-30T15:13:40.362Z,17.27
2019-05-30T15:16:08.860Z,17.17
2019-05-30T15:18:37.363Z,16.40
2019-05-30T15:21:06.262Z,10.90
2019-05-30T15:23:35.077Z,11.80
2019-05-30T15:26:03.549Z,15.47
2019-05-30T15:28:32.258Z,16.40
2019-05-30T15:31:00.749Z,21.13
2019-05-30T15:33:29.163Z,12.77
2019-05-30T15:35:57.567Z,13.80
2019-05-30T15:38:26.297Z,13.90
2019-05-30T15:40:54.986Z,17.37
2019-05-30T15:43:23.404Z,16.13
2019-05-30T15:45:52.059Z,12.27
2019-05-30T15:48:20.741Z,11.87
2019-05-30T15:50:49.149Z,12.20
2019-05-30T15:53:17.557Z,11.83
2019-05-30T15:55:45.961Z,14.10
2019-05-30T15:58:15.744Z,14.50
2019-05-30T16:00:44.605Z,14.37
2019-05-30T16:03:14.611Z,11.17
2019-05-30T16:05:43.178Z,12.57
2019-05-30T16:08:12.610Z,12.77
2019-05-30T16:10:41.176Z,12.33
2019-05-30T16:13:09.664Z,10.93
2019-05-30T16:15:38.841Z,12.10
2019-05-30T16:18:07.252Z,12.70
2019-05-30T16:20:35.963Z,11.83
2019-05-30T16:23:04.374Z,10.37
2019-05-30T16:25:33.029Z,10.07
2019-05-30T16:28:01.736Z,10.07
2019-05-30T16:30:30.244Z,9.60
2019-05-30T16:32:58.667Z,9.20
2019-05-30T16:35:27.060Z,13.83
2019-05-30T16:37:55.489Z,10.10
2019-05-30T16:40:24.146Z,11.90
2019-05-30T16:42:52.577Z,11.60
2019-05-30T16:45:24.915Z,10.50
2019-05-30T16:47:51.845Z,10.07
2019-05-30T16:50:24.082Z,10.00
2019-05-30T16:52:52.644Z,9.50
2019-05-30T16:55:21.592Z,10.40
2019-05-30T16:57:50.005Z,11.00
2019-05-30T17:00:19.924Z,12.13
2019-05-30T17:02:48.539Z,10.10
2019-05-30T17:05:17.382Z,11.23
2019-05-30T17:07:48.509Z,13.53
2019-05-30T17:10:23.390Z,10.70
2019-05-30T17:12:46.622Z,10.13
2019-05-30T17:15:17.679Z,8.40
2019-05-30T17:17:46.562Z,9.97
2019-05-30T17:20:16.424Z,10.30
2019-05-30T17:22:44.892Z,10.57
2019-05-30T17:25:13.653Z,10.13
2019-05-30T17:27:42.162Z,10.40
2019-05-30T17:30:12.857Z,9.77
2019-05-30T17:32:41.257Z,7.97
2019-05-30T17:35:10.408Z,8.60
2019-05-30T17:37:39.152Z,7.93
2019-05-30T17:40:10.726Z,7.20
2019-05-30T17:42:38.944Z,8.03
2019-05-30T17:45:09.487Z,13.10
2019-05-30T17:47:37.957Z,12.57
2019-05-30T17:50:08.708Z,5.93
2019-05-30T17:52:37.124Z,8.23
2019-05-30T17:55:07.544Z,10.80
2019-05-30T17:57:35.939Z,9.90
2019-05-30T18:00:07.569Z,6.60
2019-05-30T18:02:36.010Z,7.80
2019-05-30T18:05:09.465Z,10.23
2019-05-30T18:07:37.865Z,5.37
2019-05-30T18:10:07.417Z,6.03
2019-05-30T18:12:35.817Z,8.10
2019-05-30T18:15:09.162Z,8.23
2019-05-30T18:17:37.557Z,6.93
2019-05-30T18:20:11.016Z,6.23
2019-05-30T18:22:39.737Z,6.80
2019-05-30T18:25:10.581Z,9.40
2019-05-30T18:27:39.069Z,6.03
2019-05-30T18:30:09.069Z,7.30
2019-05-30T18:32:37.466Z,6.53
2019-05-30T18:35:07.749Z,7.03
2019-05-30T18:37:37.487Z,6.80
2019-05-30T18:40:08.005Z,8.43
2019-05-30T18:42:37.202Z,6.10
2019-05-30T18:45:08.529Z,6.17
2019-05-30T18:47:36.931Z,8.10
2019-05-30T18:50:06.879Z,5.73
2019-05-30T18:52:35.273Z,8.87
2019-05-30T18:55:06.586Z,7.60
2019-05-30T18:57:35.061Z,5.23
2019-05-30T19:00:08.053Z,6.07
2019-05-30T19:02:36.881Z,6.20
2019-05-30T19:05:08.343Z,7.40
2019-05-30T19:07:37.196Z,5.60
2019-05-30T19:10:06.267Z,5.37
2019-05-30T19:12:34.681Z,7.07
2019-05-30T19:15:03.533Z,5.80
2019-05-30T19:17:32.013Z,7.97
2019-05-30T19:20:00.434Z,6.43
2019-05-30T19:22:29.967Z,6.50
2019-05-30T19:24:58.430Z,5.40
2019-05-30T19:27:26.887Z,5.27
2019-05-30T19:29:55.289Z,5.43
2019-05-30T19:32:23.992Z,5.60
2019-05-30T19:34:52.405Z,9.00
2019-05-30T19:37:21.102Z,5.80
2019-05-30T19:39:49.653Z,6.07
2019-05-30T19:42:18.340Z,8.10
2019-05-30T19:44:46.744Z,5.57
2019-05-30T19:47:15.165Z,5.30
2019-05-30T19:49:43.576Z,6.73
2019-05-30T19:52:11.973Z,8.80
2019-05-30T19:54:40.380Z,4.27
2019-05-30T19:57:08.776Z,7.77
2019-05-30T19:59:37.931Z,5.43
2019-05-30T20:02:06.468Z,5.80
2019-05-30T20:04:34.938Z,6.07
2019-05-30T20:07:03.357Z,4.80
2019-05-30T20:09:32.479Z,6.37
2019-05-30T20:12:03.979Z,4.97
2019-05-30T20:14:31.526Z,5.47
2019-05-30T20:16:59.921Z,5.20
2019-05-30T20:19:28.333Z,5.87
2019-05-30T20:21:56.741Z,7.17
2019-05-30T20:24:25.160Z,6.73
2019-05-30T20:26:53.605Z,5.17
2019-05-30T20:29:22.309Z,5.83
2019-05-30T20:31:50.723Z,6.87
2019-05-30T20:34:19.119Z,4.97
2019-05-30T20:36:47.529Z,8.10
2019-05-30T20:39:16.249Z,5.40
2019-05-30T20:41:44.665Z,6.07
2019-05-30T20:44:13.060Z,5.43
2019-05-30T20:46:41.554Z,5.20
2019-05-30T20:49:09.967Z,5.83
2019-05-30T20:51:39.632Z,6.90
2019-05-30T20:54:08.145Z,5.90
2019-05-30T20:56:37.373Z,6.10
2019-05-30T20:59:06.181Z,5.17
2019-05-30T21:01:35.596Z,5.60
2019-05-30T21:04:04.482Z,6.57
2019-05-30T21:06:34.641Z,4.77
2019-05-30T21:09:03.897Z,6.57
2019-05-30T21:11:34.045Z,4.97
2019-05-30T21:14:03.386Z,5.87
2019-05-30T21:16:33.233Z,6.37
2019-05-30T21:19:02.202Z,8.00
2019-05-30T21:21:30.681Z,6.30
2019-05-30T21:23:59.080Z,5.50
2019-05-30T21:26:27.497Z,7.40
2019-05-30T21:28:55.893Z,4.90
2019-05-30T21:31:24.557Z,4.40
2019-05-30T21:33:53.283Z,4.00
2019-05-30T21:36:21.770Z,4.43
2019-05-30T21:38:50.212Z,4.20
2019-05-30T21:41:18.681Z,4.43
2019-05-30T21:43:47.086Z,4.23
2019-05-30T21:46:15.493Z,5.30
2019-05-30T21:48:44.951Z,5.00
2019-05-30T21:51:13.481Z,5.23
2019-05-30T21:53:41.877Z,3.73
2019-05-30T21:56:12.890Z,4.73
2019-05-30T21:58:42.069Z,5.97
2019-05-30T22:01:22.947Z,4.07
2019-05-30T22:03:51.343Z,3.43
2019-05-30T22:06:19.925Z,4.63
2019-05-30T22:08:49.337Z,3.93
2019-05-30T22:11:17.905Z,4.07
2019-05-30T22:13:47.530Z,4.20
2019-05-30T22:16:16.089Z,4.70
2019-05-30T22:18:45.978Z,5.50
2019-05-30T22:21:14.509Z,5.73
2019-05-30T22:23:44.061Z,6.90
2019-05-30T22:26:12.929Z,5.23
2019-05-30T22:28:42.266Z,4.93
2019-05-30T22:31:10.776Z,5.20
2019-05-30T22:33:39.176Z,4.90
2019-05-30T22:36:07.592Z,7.87
2019-05-30T22:38:35.989Z,5.13
2019-05-30T22:41:04.409Z,6.13
2019-05-30T22:43:32.814Z,7.03
2019-05-30T22:46:01.512Z,4.90
2019-05-30T22:48:29.911Z,5.60
2019-05-30T22:50:58.588Z,6.47
2019-05-30T22:53:26.983Z,5.80
2019-05-30T22:55:55.392Z,5.00
2019-05-30T22:58:23.796Z,5.43
2019-05-30T23:00:52.221Z,3.60
2019-05-30T23:03:20.722Z,4.90
2019-05-30T23:05:49.306Z,6.77
2019-05-30T23:08:18.083Z,4.60
2019-05-30T23:10:47.575Z,4.03
2019-05-30T23:13:16.485Z,5.50
2019-05-30T23:15:46.033Z,4.80
2019-05-30T23:18:14.574Z,4.37
2019-05-30T23:20:43.481Z,5.43
2019-05-30T23:23:11.880Z,5.17
2019-05-30T23:25:40.296Z,6.20
2019-05-30T23:28:08.691Z,4.77
2019-05-30T23:30:37.432Z,4.23
2019-05-30T23:33:05.893Z,3.90
2019-05-30T23:35:34.288Z,4.40
2019-05-30T23:38:02.697Z,5.60
2019-05-30T23:40:31.092Z,3.50
2019-05-30T23:42:59.834Z,3.73
2019-05-30T23:45:28.232Z,3.00
2019-05-30T23:47:57.658Z,6.13
2019-05-30T23:50:26.518Z,3.70
2019-05-30T23:52:56.198Z,3.33
2019-05-30T23:55:24.710Z,4.43
2019-05-30T23:57:53.117Z,3.40
